createdAt,value
2023-04-21T00:00:27.249Z,10.18
2023-04-21T00:02:54.408Z,10.70
2023-04-21T00:05:21.771Z,9.73
2023-04-21T00:07:48.871Z,10.10
2023-04-21T00:10:15.995Z,9.82
2023-04-21T00:12:43.032Z,10.70
2023-04-21T00:15:11.289Z,10.40
2023-04-21T00:17:38.290Z,10.60
2023-04-21T00:20:07.228Z,8.95
2023-04-21T00:22:34.158Z,8.60
2023-04-21T00:25:01.110Z,9.93
2023-04-21T00:27:31.512Z,9.32
2023-04-21T00:29:58.465Z,8.38
2023-04-21T00:32:25.551Z,8.52
2023-04-21T00:34:52.878Z,8.68
2023-04-21T00:37:19.866Z,9.20
2023-04-21T00:39:47.149Z,9.82
2023-04-21T00:42:17.069Z,8.88
2023-04-21T00:44:44.437Z,8.88
2023-04-21T00:47:11.718Z,7.68
2023-04-21T00:49:38.894Z,8.93
2023-04-21T00:52:06.546Z,8.57
2023-04-21T00:54:35.701Z,8.85
2023-04-21T00:57:03.840Z,9.02
2023-04-21T00:59:31.185Z,10.15
2023-04-21T01:01:58.321Z,8.20
2023-04-21T01:04:25.778Z,8.43
2023-04-21T01:06:52.958Z,8.82
2023-04-21T01:09:21.270Z,9.75
2023-04-21T01:12:04.130Z,9.10
2023-04-21T01:14:34.241Z,7.75
2023-04-21T01:17:01.453Z,8.55
2023-04-21T01:19:31.432Z,8.50
2023-04-21T01:22:00.740Z,9.75
2023-04-21T01:24:45.014Z,9.00
2023-04-21T01:27:16.557Z,8.20
2023-04-21T01:29:43.845Z,8.52
2023-04-21T01:32:13.575Z,8.60
2023-04-21T01:34:43.125Z,8.43
2023-04-21T01:37:13.580Z,9.15
2023-04-21T01:39:52.098Z,7.82
2023-04-21T01:42:19.427Z,8.37
2023-04-21T01:44:47.092Z,8.48
2023-04-21T01:47:18.627Z,9.00
2023-04-21T01:52:13.461Z,8.55
2023-04-21T01:54:40.820Z,8.30
2023-04-21T01:57:08.114Z,9.10
2023-04-21T01:59:35.618Z,9.02
2023-04-21T02:02:03.468Z,8.85
2023-04-21T02:04:34.040Z,9.38
2023-04-21T02:07:01.215Z,9.93
2023-04-21T02:09:28.401Z,10.55
2023-04-21T02:11:57.172Z,11.00
2023-04-21T02:14:25.996Z,10.52
2023-04-21T02:16:53.569Z,11.20
2023-04-21T02:19:21.004Z,10.68
2023-04-21T02:21:48.144Z,10.43
2023-04-21T02:24:15.222Z,11.13
2023-04-21T02:26:42.307Z,9.88
2023-04-21T02:29:09.398Z,9.65
2023-04-21T02:31:53.789Z,9.80
2023-04-21T02:34:26.451Z,9.32
2023-04-21T02:36:53.523Z,9.48
2023-04-21T02:39:21.124Z,9.02
2023-04-21T02:41:48.389Z,9.15
2023-04-21T02:44:15.360Z,10.25
2023-04-21T02:46:43.324Z,8.88
2023-04-21T02:49:10.980Z,9.23
2023-04-21T02:51:37.917Z,9.90
2023-04-21T02:54:05.433Z,8.88
2023-04-21T02:56:36.802Z,8.95
2023-04-21T02:59:04.978Z,9.73
2023-04-21T03:01:31.934Z,8.88
2023-04-21T03:04:01.502Z,9.10
2023-04-21T03:06:28.778Z,9.48
2023-04-21T03:08:56.849Z,9.95
2023-04-21T03:11:24.258Z,9.13
2023-04-21T03:14:02.915Z,9.13
2023-04-21T03:16:30.209Z,9.35
2023-04-21T03:18:57.209Z,10.02
2023-04-21T03:21:25.442Z,9.32
2023-04-21T03:23:53.037Z,8.77
2023-04-21T03:26:20.853Z,9.55
2023-04-21T03:28:48.275Z,9.07
2023-04-21T03:31:15.327Z,9.27
2023-04-21T03:33:42.617Z,9.73
2023-04-21T03:36:10.330Z,8.90
2023-04-21T03:38:38.884Z,10.27
2023-04-21T03:41:06.119Z,9.18
2023-04-21T03:43:33.345Z,8.93
2023-04-21T03:46:00.322Z,9.68
2023-04-21T03:48:28.847Z,9.60
2023-04-21T03:50:55.878Z,10.07
2023-04-21T03:53:23.132Z,9.55
2023-04-21T03:55:50.902Z,10.20
2023-04-21T03:58:18.589Z,9.80
2023-04-21T04:00:45.489Z,9.32
2023-04-21T04:03:12.784Z,8.93
2023-04-21T04:05:40.126Z,9.05
2023-04-21T04:08:07.383Z,9.40
2023-04-21T04:10:34.673Z,9.10
2023-04-21T04:13:01.579Z,9.70
2023-04-21T04:15:28.691Z,9.45
2023-04-21T04:17:55.954Z,9.70
2023-04-21T04:20:23.293Z,11.20
2023-04-21T04:22:50.581Z,9.93
2023-04-21T04:25:17.450Z,10.07
2023-04-21T04:27:45.100Z,10.50
2023-04-21T04:30:13.529Z,10.35
2023-04-21T04:32:41.614Z,9.65
2023-04-21T04:35:10.294Z,10.02
2023-04-21T04:37:37.728Z,10.43
2023-04-21T04:40:17.604Z,10.32
2023-04-21T04:42:47.027Z,10.18
2023-04-21T04:45:14.038Z,10.50
2023-04-21T04:47:41.100Z,10.57
2023-04-21T04:50:08.632Z,12.15
2023-04-21T04:52:35.770Z,11.13
2023-04-21T04:55:02.866Z,10.90
2023-04-21T04:57:31.701Z,10.57
2023-04-21T04:59:58.894Z,10.75
2023-04-21T05:02:26.021Z,10.55
2023-04-21T05:04:53.498Z,10.68
2023-04-21T05:07:20.876Z,10.45
2023-04-21T05:09:47.957Z,10.25
2023-04-21T05:12:14.862Z,10.63
2023-04-21T05:14:41.945Z,9.93
2023-04-21T05:17:09.065Z,10.02
2023-04-21T05:19:37.590Z,9.90
2023-04-21T05:22:06.610Z,10.90
2023-04-21T05:24:34.682Z,11.38
2023-04-21T05:27:03.115Z,10.27
2023-04-21T05:29:31.226Z,11.15
2023-04-21T05:31:58.397Z,10.07
2023-04-21T05:34:25.421Z,10.13
2023-04-21T05:36:52.666Z,10.20
2023-04-21T05:39:19.691Z,10.43
2023-04-21T05:41:46.798Z,9.80
2023-04-21T05:44:13.839Z,9.43
2023-04-21T05:46:41.010Z,9.20
2023-04-21T05:49:08.328Z,9.38
2023-04-21T05:51:35.393Z,9.25
2023-04-21T05:54:02.383Z,10.63
2023-04-21T05:56:29.289Z,10.43
2023-04-21T05:58:56.584Z,10.27
2023-04-21T06:01:23.491Z,9.90
2023-04-21T06:03:50.648Z,10.43
2023-04-21T06:06:18.194Z,9.30
2023-04-21T06:08:45.293Z,9.98
2023-04-21T06:11:12.571Z,10.00
2023-04-21T06:13:41.101Z,9.63
2023-04-21T06:16:10.012Z,9.82
2023-04-21T06:18:37.000Z,9.65
2023-04-21T06:21:04.561Z,9.82
2023-04-21T06:23:31.533Z,10.30
2023-04-21T06:26:00.517Z,9.77
2023-04-21T06:28:27.540Z,9.45
2023-04-21T06:30:54.608Z,9.80
2023-04-21T06:33:21.617Z,10.13
2023-04-21T06:35:48.606Z,8.77
2023-04-21T06:38:15.963Z,10.25
2023-04-21T06:40:43.275Z,9.18
2023-04-21T06:43:10.358Z,9.50
2023-04-21T06:45:37.580Z,10.20
2023-04-21T06:48:05.074Z,8.85
2023-04-21T06:50:32.236Z,8.95
2023-04-21T06:52:59.238Z,9.73
2023-04-21T06:55:26.583Z,9.43
2023-04-21T06:57:53.619Z,9.60
2023-04-21T07:00:21.224Z,9.10
2023-04-21T07:02:48.356Z,8.82
2023-04-21T07:05:15.818Z,8.90
2023-04-21T07:07:42.791Z,8.90
2023-04-21T07:10:10.144Z,9.27
2023-04-21T07:12:37.108Z,8.38
2023-04-21T07:15:04.969Z,9.07
2023-04-21T07:17:32.601Z,9.18
2023-04-21T07:19:59.699Z,8.90
2023-04-21T07:22:26.789Z,8.70
2023-04-21T07:24:53.789Z,8.93
2023-04-21T07:27:20.817Z,8.38
2023-04-21T07:29:47.912Z,8.68
2023-04-21T07:32:14.758Z,8.18
2023-04-21T07:34:41.893Z,9.05
2023-04-21T07:37:09.135Z,7.38
2023-04-21T07:39:36.275Z,7.40
2023-04-21T07:42:03.325Z,7.25
2023-04-21T07:44:30.533Z,7.70
2023-04-21T07:46:57.484Z,7.15
2023-04-21T07:49:24.452Z,7.50
2023-04-21T07:51:52.066Z,7.45
2023-04-21T07:54:19.082Z,6.43
2023-04-21T07:56:46.364Z,6.85
2023-04-21T07:59:13.333Z,7.45
2023-04-21T08:01:40.805Z,7.03
2023-04-21T08:04:07.870Z,6.60
2023-04-21T08:06:35.077Z,8.13
2023-04-21T08:09:02.541Z,8.07
2023-04-21T08:11:29.456Z,7.97
2023-04-21T08:13:57.725Z,6.55
2023-04-21T08:16:24.833Z,7.38
2023-04-21T08:18:51.869Z,6.43
2023-04-21T08:21:19.867Z,6.20
2023-04-21T08:23:47.077Z,7.13
2023-04-21T08:26:14.198Z,6.65
2023-04-21T08:28:42.425Z,6.20
2023-04-21T08:31:09.522Z,6.65
2023-04-21T08:33:41.337Z,5.43
2023-04-21T08:36:26.010Z,5.60
2023-04-21T08:38:56.349Z,5.95
2023-04-21T08:41:24.376Z,5.85
2023-04-21T08:43:51.861Z,6.07
2023-04-21T08:46:19.398Z,6.07
2023-04-21T08:48:47.668Z,6.30
2023-04-21T08:51:24.699Z,5.93
2023-04-21T08:53:52.217Z,6.70
2023-04-21T08:56:19.442Z,6.28
2023-04-21T08:58:46.531Z,5.82
2023-04-21T09:01:13.836Z,6.50
2023-04-21T09:03:41.031Z,5.85
2023-04-21T09:06:09.941Z,7.00
2023-04-21T09:08:40.009Z,6.38
2023-04-21T09:11:07.080Z,6.65
2023-04-21T09:13:36.468Z,5.82
2023-04-21T09:18:44.694Z,5.88
2023-04-21T09:21:13.977Z,5.50
2023-04-21T09:23:51.684Z,5.50
2023-04-21T09:26:23.034Z,5.13
2023-04-21T09:28:53.178Z,5.90
2023-04-21T09:31:24.768Z,4.88
2023-04-21T09:33:59.491Z,4.78
2023-04-21T09:36:30.778Z,5.13
2023-04-21T09:41:33.037Z,4.72
2023-04-21T09:44:01.653Z,5.70
2023-04-21T09:46:32.710Z,4.57
2023-04-21T09:49:04.604Z,5.85
2023-04-21T09:51:56.150Z,5.35
2023-04-21T09:54:29.745Z,4.93
2023-04-21T09:57:03.842Z,3.97
2023-04-21T09:59:37.229Z,4.60
2023-04-21T10:02:08.411Z,4.93
2023-04-21T10:04:38.353Z,4.55
2023-04-21T10:07:06.704Z,4.97
2023-04-21T10:09:40.536Z,5.50
2023-04-21T10:12:09.799Z,5.75
2023-04-21T10:14:37.425Z,5.45
2023-04-21T10:17:10.187Z,5.72
2023-04-21T10:19:47.814Z,5.97
2023-04-21T10:22:14.854Z,5.93
2023-04-21T10:24:43.279Z,5.88
2023-04-21T10:27:32.106Z,5.80
2023-04-21T10:29:59.944Z,5.72
2023-04-21T10:32:41.802Z,6.30
2023-04-21T10:35:14.890Z,5.75
2023-04-21T10:37:44.687Z,6.03
2023-04-21T10:40:43.722Z,6.80
2023-04-21T10:43:48.137Z,5.93
2023-04-21T10:46:35.564Z,6.15
2023-04-21T10:49:09.183Z,5.68
2023-04-21T10:51:59.091Z,5.63
2023-04-21T10:54:28.013Z,5.28
2023-04-21T10:56:56.311Z,4.70
2023-04-21T10:59:24.440Z,4.93
2023-04-21T11:01:53.062Z,5.10
2023-04-21T11:04:22.749Z,4.95
2023-04-21T11:07:11.796Z,4.97
2023-04-21T11:09:41.155Z,4.82
2023-04-21T11:12:10.797Z,4.70
2023-04-21T11:14:39.697Z,4.85
2023-04-21T11:17:18.495Z,5.03
2023-04-21T11:19:47.633Z,5.13
2023-04-21T11:22:17.031Z,5.18
2023-04-21T11:27:18.246Z,5.20
2023-04-21T11:29:46.534Z,4.80
2023-04-21T11:32:14.306Z,4.23
2023-04-21T11:34:41.786Z,4.78
2023-04-21T11:37:10.827Z,5.35
2023-04-21T11:39:41.170Z,5.55
2023-04-21T11:42:08.309Z,5.72
2023-04-21T11:44:43.239Z,5.50
2023-04-21T11:47:26.914Z,5.80
2023-04-21T11:49:56.342Z,4.55
2023-04-21T11:52:36.100Z,4.35
2023-04-21T11:55:12.278Z,4.63
2023-04-21T11:57:41.015Z,4.57
2023-04-21T12:00:12.000Z,3.65
2023-04-21T12:02:40.022Z,3.20
2023-04-21T12:05:09.814Z,3.33
2023-04-21T12:07:45.088Z,3.80
2023-04-21T12:10:13.571Z,2.95
2023-04-21T12:12:42.253Z,2.80
2023-04-21T12:15:11.961Z,3.20
2023-04-21T12:17:47.008Z,2.65
2023-04-21T12:20:23.608Z,3.33
2023-04-21T12:22:51.190Z,3.58
2023-04-21T12:25:18.556Z,3.88
2023-04-21T12:27:58.779Z,4.07
2023-04-21T12:30:25.903Z,3.92
2023-04-21T12:32:54.557Z,4.45
2023-04-21T12:35:22.881Z,4.65
2023-04-21T12:37:49.935Z,4.65
2023-04-21T12:40:17.123Z,4.93
2023-04-21T12:42:44.016Z,4.45
2023-04-21T12:45:11.546Z,4.85
2023-04-21T12:47:39.404Z,4.93
2023-04-21T12:50:07.490Z,5.07
2023-04-21T12:52:34.929Z,4.88
2023-04-21T12:55:02.204Z,4.80
2023-04-21T12:57:31.981Z,4.70
2023-04-21T12:59:59.202Z,4.55
2023-04-21T13:02:26.383Z,4.47
2023-04-21T13:04:54.028Z,4.70
2023-04-21T13:07:22.709Z,4.88
2023-04-21T13:09:49.740Z,5.15
2023-04-21T13:12:17.433Z,4.50
2023-04-21T13:14:44.399Z,5.13
2023-04-21T13:17:11.751Z,5.03
2023-04-21T13:19:38.872Z,4.53
2023-04-21T13:22:05.975Z,5.20
2023-04-21T13:24:33.684Z,4.70
2023-04-21T13:27:03.961Z,4.70
2023-04-21T13:29:34.165Z,4.70
2023-04-21T13:32:02.497Z,5.38
2023-04-21T13:34:31.551Z,4.45
2023-04-21T13:36:59.250Z,4.95
2023-04-21T13:39:26.698Z,4.70
2023-04-21T13:41:54.861Z,4.78
2023-04-21T13:44:22.036Z,6.03
2023-04-21T13:46:50.697Z,5.50
2023-04-21T13:49:18.222Z,5.60
2023-04-21T13:51:52.281Z,5.20
2023-04-21T13:54:31.488Z,4.72
2023-04-21T13:56:59.050Z,5.15
2023-04-21T13:59:26.184Z,5.38
2023-04-21T14:01:53.336Z,5.20
2023-04-21T14:04:22.352Z,5.45
2023-04-21T14:09:17.919Z,5.40
2023-04-21T14:11:44.945Z,5.25
2023-04-21T14:14:11.869Z,5.47
2023-04-21T14:16:39.219Z,6.30
2023-04-21T14:19:06.970Z,5.65
2023-04-21T14:21:34.717Z,5.30
2023-04-21T14:24:02.068Z,5.50
2023-04-21T14:26:29.152Z,5.40
2023-04-21T14:28:56.625Z,4.90
2023-04-21T14:31:23.643Z,5.28
2023-04-21T14:33:50.850Z,5.03
2023-04-21T14:36:18.188Z,5.20
2023-04-21T14:38:45.278Z,5.20
2023-04-21T14:41:13.053Z,5.75
2023-04-21T14:43:40.204Z,5.30
2023-04-21T14:46:07.474Z,5.68
2023-04-21T14:48:34.866Z,5.85
2023-04-21T14:51:02.148Z,5.22
2023-04-21T14:53:30.448Z,5.43
2023-04-21T14:55:58.290Z,5.22
2023-04-21T14:58:25.586Z,5.80
2023-04-21T15:00:52.697Z,5.88
2023-04-21T15:03:19.842Z,6.50
2023-04-21T15:05:47.067Z,5.60
2023-04-21T15:08:18.109Z,5.38
2023-04-21T15:10:56.899Z,5.50
2023-04-21T15:13:24.097Z,5.75
2023-04-21T15:15:54.255Z,6.63
2023-04-21T15:18:21.150Z,6.10
2023-04-21T15:20:48.410Z,5.65
2023-04-21T15:23:15.663Z,5.50
2023-04-21T15:25:43.224Z,5.30
2023-04-21T15:28:10.239Z,5.65
2023-04-21T15:30:37.837Z,5.93
2023-04-21T15:33:05.327Z,4.72
2023-04-21T15:35:35.536Z,4.95
2023-04-21T15:38:03.361Z,5.10
2023-04-21T15:40:30.496Z,5.35
2023-04-21T15:42:57.712Z,4.53
2023-04-21T15:45:24.773Z,5.45
2023-04-21T15:47:51.835Z,5.15
2023-04-21T15:50:18.841Z,5.32
2023-04-21T15:52:45.996Z,5.30
2023-04-21T15:55:17.562Z,5.32
2023-04-21T15:57:56.939Z,4.72
2023-04-21T16:00:24.677Z,4.53
2023-04-21T16:02:52.042Z,4.18
2023-04-21T16:05:20.035Z,4.82
2023-04-21T16:07:47.287Z,4.35
2023-04-21T16:10:17.807Z,4.55
2023-04-21T16:12:45.897Z,4.90
2023-04-21T16:15:23.882Z,4.43
2023-04-21T16:17:53.136Z,4.10
2023-04-21T16:20:20.225Z,4.78
2023-04-21T16:22:50.217Z,3.60
2023-04-21T16:25:20.142Z,3.88
2023-04-21T16:27:48.206Z,3.97
2023-04-21T16:30:15.552Z,3.70
2023-04-21T16:32:42.749Z,3.95
2023-04-21T16:35:11.430Z,3.78
2023-04-21T16:37:40.623Z,3.63
2023-04-21T16:42:36.587Z,4.15
2023-04-21T16:45:05.895Z,3.60
2023-04-21T16:47:41.045Z,4.10
2023-04-21T16:50:10.122Z,4.25
2023-04-21T16:52:37.259Z,5.68
2023-04-21T16:55:04.602Z,4.38
2023-04-21T16:57:33.340Z,4.50
2023-04-21T17:00:01.178Z,5.25
2023-04-21T17:02:34.391Z,4.95
2023-04-21T17:05:01.575Z,5.15
2023-04-21T17:07:32.257Z,5.70
2023-04-21T17:09:59.600Z,4.68
2023-04-21T17:12:26.589Z,4.75
2023-04-21T17:14:53.651Z,5.18
2023-04-21T17:17:20.648Z,5.13
2023-04-21T17:19:48.457Z,5.43
2023-04-21T17:22:15.930Z,5.40
2023-04-21T17:24:52.398Z,4.93
2023-04-21T17:27:20.907Z,5.20
2023-04-21T17:29:48.530Z,5.75
2023-04-21T17:32:15.878Z,5.80
2023-04-21T17:34:44.066Z,5.82
2023-04-21T17:37:11.600Z,5.82
2023-04-21T17:39:38.814Z,5.90
2023-04-21T17:42:05.970Z,5.50
2023-04-21T17:44:33.032Z,5.75
2023-04-21T17:47:00.062Z,6.32
2023-04-21T17:49:27.183Z,7.25
2023-04-21T17:51:54.476Z,6.53
2023-04-21T17:54:21.719Z,6.95
2023-04-21T17:56:48.716Z,7.95
2023-04-21T17:59:15.782Z,9.25
2023-04-21T18:02:01.424Z,8.68
2023-04-21T18:04:30.755Z,7.10
2023-04-21T18:09:26.282Z,6.90
2023-04-21T18:11:53.610Z,8.07
2023-04-21T18:14:21.147Z,8.15
2023-04-21T18:16:48.250Z,7.63
2023-04-21T18:19:18.267Z,6.63
2023-04-21T18:21:47.980Z,9.15
2023-04-21T18:24:15.279Z,8.85
2023-04-21T18:26:43.684Z,8.60
2023-04-21T18:29:10.936Z,7.43
2023-04-21T18:31:38.456Z,7.50
2023-04-21T18:34:06.218Z,7.53
2023-04-21T18:36:34.409Z,8.60
2023-04-21T18:39:02.203Z,7.82
2023-04-21T18:41:29.407Z,7.30
2023-04-21T18:43:56.999Z,6.30
2023-04-21T18:46:24.232Z,6.90
2023-04-21T18:48:51.351Z,6.20
2023-04-21T18:51:18.376Z,5.95
2023-04-21T18:53:46.374Z,5.95
2023-04-21T18:56:13.341Z,8.27
2023-04-21T18:58:40.552Z,7.03
2023-04-21T19:01:08.157Z,7.28
2023-04-21T19:03:35.756Z,8.75
2023-04-21T19:06:02.988Z,7.47
2023-04-21T19:08:41.319Z,8.05
2023-04-21T19:11:10.304Z,8.38
2023-04-21T19:13:37.596Z,8.50
2023-04-21T19:16:05.434Z,7.90
2023-04-21T19:18:32.654Z,8.20
2023-04-21T19:21:00.019Z,8.38
2023-04-21T19:23:27.038Z,8.20
2023-04-21T19:25:57.465Z,9.48
2023-04-21T19:28:24.609Z,8.88
2023-04-21T19:30:51.613Z,8.05
2023-04-21T19:33:18.674Z,8.15
2023-04-21T19:35:46.227Z,8.30
2023-04-21T19:38:14.438Z,10.25
2023-04-21T19:40:44.478Z,8.30
2023-04-21T19:43:11.855Z,9.77
2023-04-21T19:45:39.135Z,8.40
2023-04-21T19:48:07.596Z,7.88
2023-04-21T19:50:35.885Z,9.15
2023-04-21T19:53:03.734Z,8.20
2023-04-21T19:55:32.210Z,8.00
2023-04-21T19:57:59.273Z,7.75
2023-04-21T20:00:26.529Z,7.05
2023-04-21T20:02:55.173Z,6.78
2023-04-21T20:05:22.370Z,6.65
2023-04-21T20:07:49.462Z,6.88
2023-04-21T20:10:16.536Z,6.20
2023-04-21T20:12:43.521Z,6.28
2023-04-21T20:15:11.986Z,7.03
2023-04-21T20:17:39.080Z,6.18
2023-04-21T20:20:07.124Z,6.63
2023-04-21T20:22:34.316Z,7.43
2023-04-21T20:25:01.299Z,7.45
2023-04-21T20:29:57.942Z,7.70
2023-04-21T20:32:25.098Z,7.05
2023-04-21T20:34:53.458Z,7.78
2023-04-21T20:37:20.542Z,7.80
2023-04-21T20:39:47.679Z,7.47
2023-04-21T20:42:14.889Z,7.00
2023-04-21T20:44:43.146Z,7.90
2023-04-21T20:47:11.290Z,8.00
2023-04-21T20:49:39.849Z,7.57
2023-04-21T20:52:07.268Z,8.07
2023-04-21T20:54:35.001Z,7.70
2023-04-21T20:57:02.663Z,7.93
2023-04-21T20:59:29.872Z,8.05
2023-04-21T21:01:56.854Z,8.45
2023-04-21T21:04:24.004Z,9.15
2023-04-21T21:06:51.253Z,8.10
2023-04-21T21:09:19.204Z,7.45
2023-04-21T21:11:46.697Z,8.18
2023-04-21T21:14:14.181Z,7.72
2023-04-21T21:16:41.825Z,8.32
2023-04-21T21:19:09.390Z,35.03
2023-04-21T21:21:36.581Z,9.43
2023-04-21T21:24:03.876Z,9.15
2023-04-21T21:26:31.016Z,8.70
2023-04-21T21:28:58.253Z,9.18
2023-04-21T21:31:25.718Z,9.07
2023-04-21T21:33:52.784Z,9.48
2023-04-21T21:36:20.102Z,8.60
2023-04-21T21:38:47.035Z,9.02
2023-04-21T21:41:14.714Z,9.50
2023-04-21T21:43:41.697Z,9.63
2023-04-21T21:46:09.102Z,14.23
2023-04-21T21:48:36.231Z,12.05
2023-04-21T21:51:04.375Z,10.80
2023-04-21T21:53:32.606Z,10.87
2023-04-21T21:56:00.199Z,11.73
2023-04-21T21:58:27.400Z,14.13
2023-04-21T22:00:54.863Z,31.02
2023-04-21T22:03:22.665Z,24.13
2023-04-21T22:05:49.890Z,17.38
2023-04-21T22:08:16.906Z,47.40
2023-04-21T22:10:43.872Z,12.45
2023-04-21T22:13:12.043Z,11.57
2023-04-21T22:15:39.358Z,11.13
2023-04-21T22:18:08.046Z,11.23
2023-04-21T22:20:36.100Z,11.20
2023-04-21T22:23:04.078Z,11.05
2023-04-21T22:25:31.076Z,12.10
2023-04-21T22:27:59.164Z,12.32
2023-04-21T22:30:26.337Z,12.13
2023-04-21T22:32:53.371Z,12.23
2023-04-21T22:35:20.980Z,12.93
2023-04-21T22:37:48.073Z,12.38
2023-04-21T22:40:15.115Z,12.73
2023-04-21T22:42:42.348Z,13.00
2023-04-21T22:45:10.064Z,12.40
2023-04-21T22:47:37.101Z,11.25
2023-04-21T22:50:04.697Z,11.85
2023-04-21T22:52:31.908Z,11.30
2023-04-21T22:54:58.856Z,11.32
2023-04-21T22:57:26.160Z,10.35
2023-04-21T22:59:53.168Z,9.88
2023-04-21T23:02:20.315Z,10.65
2023-04-21T23:04:47.277Z,9.60
2023-04-21T23:07:14.319Z,10.00
2023-04-21T23:09:41.405Z,10.85
2023-04-21T23:12:08.637Z,9.52
2023-04-21T23:14:35.687Z,10.27
2023-04-21T23:17:03.055Z,10.10
2023-04-21T23:19:30.134Z,11.05
2023-04-21T23:21:58.694Z,11.30
2023-04-21T23:24:25.704Z,10.25
2023-04-21T23:26:52.689Z,9.45
2023-04-21T23:29:19.826Z,11.40
2023-04-21T23:31:46.917Z,11.35
2023-04-21T23:34:14.973Z,10.07
2023-04-21T23:36:42.020Z,11.80
2023-04-21T23:39:09.972Z,11.70
2023-04-21T23:41:37.450Z,14.15
2023-04-21T23:44:04.448Z,13.02
2023-04-21T23:46:31.797Z,13.55
2023-04-21T23:48:58.974Z,12.50
2023-04-21T23:51:27.055Z,12.02
2023-04-21T23:53:54.120Z,13.18
2023-04-21T23:56:21.287Z,12.85
2023-04-21T23:58:48.242Z,13.18
